sensor_id;sensor_type;location;lat;lon;timestamp;pressure;altitude;pressure_sealevel;temperature;humidity
24302;BME280;12421;49.732;20.078;2024-01-30T00:05:32;98709.55;;;-4.24;86.30
24302;BME280;12421;49.732;20.078;2024-01-30T00:15:35;98705.92;;;-4.27;85.69
24302;BME280;12421;49.732;20.078;2024-01-30T00:25:39;98702.86;;;-4.45;85.35
24302;BME280;12421;49.732;20.078;2024-01-30T00:35:42;98700.27;;;-4.54;85.82
24302;BME280;12421;49.732;20.078;2024-01-30T00:45:45;98698.92;;;-4.49;86.51
24302;BME280;12421;49.732;20.078;2024-01-30T00:55:48;98691.84;;;-4.52;86.43
24302;BME280;12421;49.732;20.078;2024-01-30T01:05:51;98683.73;;;-4.48;86.22
24302;BME280;12421;49.732;20.078;2024-01-30T01:15:54;98676.37;;;-4.53;86.21
24302;BME280;12421;49.732;20.078;2024-01-30T01:25:58;98665.61;;;-4.57;86.07
24302;BME280;12421;49.732;20.078;2024-01-30T01:36:03;98663.94;;;-4.52;86.75
24302;BME280;12421;49.732;20.078;2024-01-30T01:46:07;98665.11;;;-4.52;85.97
24302;BME280;12421;49.732;20.078;2024-01-30T01:56:11;98660.20;;;-4.63;85.95
24302;BME280;12421;49.732;20.078;2024-01-30T02:06:15;98663.52;;;-4.75;86.04
24302;BME280;12421;49.732;20.078;2024-01-30T02:16:19;98659.45;;;-4.73;87.03
24302;BME280;12421;49.732;20.078;2024-01-30T02:26:22;98655.42;;;-4.62;87.23
24302;BME280;12421;49.732;20.078;2024-01-30T02:36:25;98653.83;;;-4.63;86.32
24302;BME280;12421;49.732;20.078;2024-01-30T02:46:29;98648.21;;;-4.72;85.90
24302;BME280;12421;49.732;20.078;2024-01-30T02:56:32;98638.01;;;-4.88;85.55
24302;BME280;12421;49.732;20.078;2024-01-30T03:06:35;98640.01;;;-4.94;86.11
24302;BME280;12421;49.732;20.078;2024-01-30T03:16:38;98636.19;;;-4.97;86.27
24302;BME280;12421;49.732;20.078;2024-01-30T03:26:42;98631.44;;;-5.00;86.18
24302;BME280;12421;49.732;20.078;2024-01-30T03:36:45;98622.08;;;-4.93;86.38
24302;BME280;12421;49.732;20.078;2024-01-30T03:46:48;98619.71;;;-4.90;86.31
24302;BME280;12421;49.732;20.078;2024-01-30T03:56:51;98615.63;;;-4.92;85.70
24302;BME280;12421;49.732;20.078;2024-01-30T04:06:54;98622.20;;;-5.05;85.45
24302;BME280;12421;49.732;20.078;2024-01-30T04:16:57;98612.45;;;-5.07;85.77
24302;BME280;12421;49.732;20.078;2024-01-30T04:27:00;98613.92;;;-5.06;86.08
24302;BME280;12421;49.732;20.078;2024-01-30T04:37:03;98620.08;;;-5.01;86.02
24302;BME280;12421;49.732;20.078;2024-01-30T04:47:07;98623.05;;;-4.94;86.46
24302;BME280;12421;49.732;20.078;2024-01-30T04:57:12;98630.55;;;-4.94;86.00
24302;BME280;12421;49.732;20.078;2024-01-30T05:07:15;98637.42;;;-4.98;86.00
24302;BME280;12421;49.732;20.078;2024-01-30T05:17:18;98642.19;;;-5.10;85.96
24302;BME280;12421;49.732;20.078;2024-01-30T05:27:22;98651.31;;;-5.11;86.24
24302;BME280;12421;49.732;20.078;2024-01-30T05:37:25;98654.29;;;-5.13;86.18
24302;BME280;12421;49.732;20.078;2024-01-30T05:47:28;98648.59;;;-5.13;85.87
24302;BME280;12421;49.732;20.078;2024-01-30T05:57:31;98652.86;;;-5.18;85.95
24302;BME280;12421;49.732;20.078;2024-01-30T06:07:34;98649.30;;;-5.13;86.56
24302;BME280;12421;49.732;20.078;2024-01-30T06:17:39;98653.66;;;-5.12;86.54
24302;BME280;12421;49.732;20.078;2024-01-30T06:27:43;98656.48;;;-5.04;86.54
24302;BME280;12421;49.732;20.078;2024-01-30T06:37:46;98655.64;;;-4.95;86.90
24302;BME280;12421;49.732;20.078;2024-01-30T06:47:49;98652.45;;;-4.83;87.12
24302;BME280;12421;49.732;20.078;2024-01-30T06:57:52;98654.52;;;-4.74;86.02
24302;BME280;12421;49.732;20.078;2024-01-30T07:07:55;98657.17;;;-4.78;85.93
24302;BME280;12421;49.732;20.078;2024-01-30T07:17:59;98655.99;;;-4.59;86.69
24302;BME280;12421;49.732;20.078;2024-01-30T07:28:02;98653.14;;;-4.31;87.42
24302;BME280;12421;49.732;20.078;2024-01-30T07:38:05;98656.17;;;-3.95;88.16
24302;BME280;12421;49.732;20.078;2024-01-30T07:48:09;98655.78;;;-3.55;89.51
24302;BME280;12421;49.732;20.078;2024-01-30T07:58:12;98640.19;;;-3.14;89.98
24302;BME280;12421;49.732;20.078;2024-01-30T08:08:15;98639.80;;;-2.76;90.60
24302;BME280;12421;49.732;20.078;2024-01-30T08:18:18;98643.79;;;-2.33;91.65
24302;BME280;12421;49.732;20.078;2024-01-30T08:28:21;98636.30;;;-1.90;92.12
24302;BME280;12421;49.732;20.078;2024-01-30T08:38:28;98634.36;;;-1.45;92.32
24302;BME280;12421;49.732;20.078;2024-01-30T08:48:31;98634.11;;;-1.07;92.14
24302;BME280;12421;49.732;20.078;2024-01-30T08:58:34;98625.67;;;-0.71;91.86
24302;BME280;12421;49.732;20.078;2024-01-30T09:08:38;98623.20;;;-0.34;90.78
24302;BME280;12421;49.732;20.078;2024-01-30T09:18:42;98618.69;;;0.04;90.21
24302;BME280;12421;49.732;20.078;2024-01-30T09:28:45;98612.08;;;0.28;89.20
24302;BME280;12421;49.732;20.078;2024-01-30T09:38:48;98598.58;;;0.46;87.15
24302;BME280;12421;49.732;20.078;2024-01-30T09:48:51;98586.34;;;0.78;86.40
24302;BME280;12421;49.732;20.078;2024-01-30T09:58:55;98574.73;;;1.07;85.03
24302;BME280;12421;49.732;20.078;2024-01-30T10:08:58;98561.15;;;1.32;84.31
24302;BME280;12421;49.732;20.078;2024-01-30T10:19:01;98546.15;;;1.60;83.22
24302;BME280;12421;49.732;20.078;2024-01-30T10:29:06;98532.16;;;1.99;82.54
24302;BME280;12421;49.732;20.078;2024-01-30T10:39:11;98521.79;;;2.36;80.83
24302;BME280;12421;49.732;20.078;2024-01-30T10:49:15;98513.15;;;2.78;80.68
24302;BME280;12421;49.732;20.078;2024-01-30T10:59:18;98497.70;;;3.22;78.72
24302;BME280;12421;49.732;20.078;2024-01-30T11:09:22;98476.96;;;3.53;77.77
24302;BME280;12421;49.732;20.078;2024-01-30T11:19:26;98467.84;;;3.84;76.89
24302;BME280;12421;49.732;20.078;2024-01-30T11:29:30;98459.45;;;4.13;75.71
24302;BME280;12421;49.732;20.078;2024-01-30T11:39:33;98445.77;;;4.42;74.72
24302;BME280;12421;49.732;20.078;2024-01-30T11:49:38;98445.48;;;4.72;73.91
24302;BME280;12421;49.732;20.078;2024-01-30T11:59:42;98435.48;;;4.99;72.64
24302;BME280;12421;49.732;20.078;2024-01-30T12:09:53;98428.63;;;5.27;72.54
24302;BME280;12421;49.732;20.078;2024-01-30T12:20:10;98416.84;;;5.44;71.08
24302;BME280;12421;49.732;20.078;2024-01-30T12:30:15;98410.30;;;5.68;70.74
24302;BME280;12421;49.732;20.078;2024-01-30T12:40:18;98398.97;;;5.79;69.20
24302;BME280;12421;49.732;20.078;2024-01-30T12:50:22;98399.33;;;5.89;67.89
24302;BME280;12421;49.732;20.078;2024-01-30T13:00:25;98407.02;;;5.95;67.98
24302;BME280;12421;49.732;20.078;2024-01-30T13:10:28;98405.91;;;5.99;67.36
24302;BME280;12421;49.732;20.078;2024-01-30T13:20:32;98407.38;;;5.96;67.48
24302;BME280;12421;49.732;20.078;2024-01-30T13:30:35;98402.86;;;5.85;67.14
24302;BME280;12421;49.732;20.078;2024-01-30T13:40:38;98393.36;;;5.72;66.88
24302;BME280;12421;49.732;20.078;2024-01-30T13:50:42;98391.69;;;5.63;66.51
24302;BME280;12421;49.732;20.078;2024-01-30T14:00:45;98392.55;;;5.52;66.11
24302;BME280;12421;49.732;20.078;2024-01-30T14:10:49;98384.86;;;5.35;66.10
24302;BME280;12421;49.732;20.078;2024-01-30T14:20:52;98384.41;;;5.11;66.16
24302;BME280;12421;49.732;20.078;2024-01-30T14:30:55;98386.69;;;4.87;65.91
24302;BME280;12421;49.732;20.078;2024-01-30T14:40:58;98383.17;;;4.57;66.82
24302;BME280;12421;49.732;20.078;2024-01-30T14:51:02;98386.52;;;4.24;67.87
24302;BME280;12421;49.732;20.078;2024-01-30T15:01:06;98380.39;;;3.91;68.30
24302;BME280;12421;49.732;20.078;2024-01-30T15:11:11;98385.13;;;3.53;69.15
24302;BME280;12421;49.732;20.078;2024-01-30T15:21:14;98388.97;;;3.07;70.34
24302;BME280;12421;49.732;20.078;2024-01-30T15:31:23;98393.98;;;2.65;71.27
24302;BME280;12421;49.732;20.078;2024-01-30T15:41:31;98396.66;;;2.17;72.47
24302;BME280;12421;49.732;20.078;2024-01-30T15:51:34;98391.81;;;1.79;73.26
24302;BME280;12421;49.732;20.078;2024-01-30T16:01:38;98389.21;;;1.43;73.94
24302;BME280;12421;49.732;20.078;2024-01-30T16:11:41;98384.91;;;1.04;74.67
24302;BME280;12421;49.732;20.078;2024-01-30T16:21:44;98379.89;;;0.74;75.37
24302;BME280;12421;49.732;20.078;2024-01-30T16:31:48;98383.04;;;0.44;76.02
24302;BME280;12421;49.732;20.078;2024-01-30T16:41:51;98374.57;;;0.21;76.45
24302;BME280;12421;49.732;20.078;2024-01-30T16:51:55;98378.48;;;-0.00;77.00
24302;BME280;12421;49.732;20.078;2024-01-30T17:02:01;98372.87;;;-0.09;77.42
24302;BME280;12421;49.732;20.078;2024-01-30T17:12:04;98369.38;;;-0.22;77.72
24302;BME280;12421;49.732;20.078;2024-01-30T17:22:08;98365.84;;;-0.39;78.31
24302;BME280;12421;49.732;20.078;2024-01-30T17:32:11;98369.29;;;-0.61;78.46
24302;BME280;12421;49.732;20.078;2024-01-30T17:42:15;98354.55;;;-0.75;78.78
24302;BME280;12421;49.732;20.078;2024-01-30T17:52:18;98353.95;;;-0.79;78.90
24302;BME280;12421;49.732;20.078;2024-01-30T18:02:22;98346.94;;;-0.84;79.43
24302;BME280;12421;49.732;20.078;2024-01-30T18:12:25;98349.32;;;-0.88;79.47
24302;BME280;12421;49.732;20.078;2024-01-30T18:22:31;98353.88;;;-1.11;79.48
24302;BME280;12421;49.732;20.078;2024-01-30T18:32:35;98343.52;;;-1.23;80.05
24302;BME280;12421;49.732;20.078;2024-01-30T18:42:41;98349.14;;;-1.28;80.21
24302;BME280;12421;49.732;20.078;2024-01-30T18:52:44;98340.92;;;-1.30;80.00
24302;BME280;12421;49.732;20.078;2024-01-30T19:02:48;98341.97;;;-1.41;80.01
24302;BME280;12421;49.732;20.078;2024-01-30T19:12:54;98350.38;;;-1.53;80.30
24302;BME280;12421;49.732;20.078;2024-01-30T19:22:57;98357.23;;;-1.63;80.57
24302;BME280;12421;49.732;20.078;2024-01-30T19:33:03;98354.61;;;-1.69;80.42
24302;BME280;12421;49.732;20.078;2024-01-30T19:43:06;98354.89;;;-1.76;80.73
24302;BME280;12421;49.732;20.078;2024-01-30T19:53:13;98349.30;;;-1.83;80.69
24302;BME280;12421;49.732;20.078;2024-01-30T20:03:18;98352.42;;;-1.91;80.68
24302;BME280;12421;49.732;20.078;2024-01-30T20:13:21;98359.61;;;-1.98;80.77
24302;BME280;12421;49.732;20.078;2024-01-30T20:23:27;98355.23;;;-2.04;80.85
24302;BME280;12421;49.732;20.078;2024-01-30T20:33:31;98350.67;;;-2.09;81.17
24302;BME280;12421;49.732;20.078;2024-01-30T20:43:43;98344.85;;;-2.11;81.04
24302;BME280;12421;49.732;20.078;2024-01-30T20:53:46;98337.44;;;-2.22;80.96
24302;BME280;12421;49.732;20.078;2024-01-30T21:03:50;98328.92;;;-2.46;81.26
24302;BME280;12421;49.732;20.078;2024-01-30T21:13:53;98322.31;;;-2.69;81.58
24302;BME280;12421;49.732;20.078;2024-01-30T21:23:56;98318.25;;;-2.82;82.00
24302;BME280;12421;49.732;20.078;2024-01-30T21:33:59;98311.95;;;-2.81;82.24
24302;BME280;12421;49.732;20.078;2024-01-30T21:44:03;98305.06;;;-2.87;82.22
24302;BME280;12421;49.732;20.078;2024-01-30T21:54:09;98296.84;;;-2.95;82.41
24302;BME280;12421;49.732;20.078;2024-01-30T22:04:12;98289.16;;;-3.08;82.20
24302;BME280;12421;49.732;20.078;2024-01-30T22:14:16;98287.07;;;-3.14;82.37
24302;BME280;12421;49.732;20.078;2024-01-30T22:24:19;98297.75;;;-3.24;82.62
24302;BME280;12421;49.732;20.078;2024-01-30T22:34:24;98300.96;;;-3.27;82.68
24302;BME280;12421;49.732;20.078;2024-01-30T22:44:27;98302.23;;;-3.26;82.67
24302;BME280;12421;49.732;20.078;2024-01-30T22:54:31;98299.92;;;-3.35;82.29
24302;BME280;12421;49.732;20.078;2024-01-30T23:04:34;98298.17;;;-3.43;82.59
24302;BME280;12421;49.732;20.078;2024-01-30T23:14:38;98296.80;;;-3.51;82.59
24302;BME280;12421;49.732;20.078;2024-01-30T23:24:43;98293.89;;;-3.54;82.72
24302;BME280;12421;49.732;20.078;2024-01-30T23:35:04;98301.39;;;-3.52;82.56
24302;BME280;12421;49.732;20.078;2024-01-30T23:45:09;98299.45;;;-3.63;82.34
24302;BME280;12421;49.732;20.078;2024-01-30T23:55:14;98292.34;;;-3.75;82.51
